createdAt,value
2023-03-07T00:00:08.645Z,18.80
2023-03-07T00:02:56.572Z,18.00
2023-03-07T00:05:24.763Z,18.70
2023-03-07T00:07:52.733Z,20.10
2023-03-07T00:10:20.843Z,20.50
2023-03-07T00:12:48.867Z,19.20
2023-03-07T00:15:17.348Z,19.70
2023-03-07T00:17:45.757Z,18.60
2023-03-07T00:20:16.665Z,18.00
2023-03-07T00:22:47.033Z,16.80
2023-03-07T00:25:15.411Z,17.90
2023-03-07T00:27:43.542Z,19.80
2023-03-07T00:30:14.894Z,17.10
2023-03-07T00:32:43.196Z,18.90
2023-03-07T00:35:11.345Z,16.50
2023-03-07T00:37:39.411Z,14.70
2023-03-07T00:40:09.584Z,14.30
2023-03-07T00:42:37.606Z,15.90
2023-03-07T00:45:06.125Z,17.00
2023-03-07T00:47:34.765Z,16.60
2023-03-07T00:50:04.472Z,17.40
2023-03-07T00:52:33.877Z,16.10
2023-03-07T00:55:02.069Z,16.50
2023-03-07T00:57:30.535Z,17.80
2023-03-07T00:59:58.609Z,18.20
2023-03-07T01:02:26.595Z,17.80
2023-03-07T01:04:54.852Z,18.50
2023-03-07T01:07:22.925Z,19.30
2023-03-07T01:09:53.312Z,19.40
2023-03-07T01:12:21.415Z,19.50
2023-03-07T01:14:51.121Z,19.50
2023-03-07T01:17:19.237Z,17.50
2023-03-07T01:19:47.272Z,18.70
2023-03-07T01:22:15.337Z,18.50
2023-03-07T01:24:43.515Z,19.20
2023-03-07T01:27:11.990Z,17.30
2023-03-07T01:29:40.400Z,16.70
2023-03-07T01:32:08.880Z,16.60
2023-03-07T01:34:37.131Z,17.20
2023-03-07T01:37:05.116Z,20.40
2023-03-07T01:39:33.619Z,18.80
2023-03-07T01:42:05.849Z,17.60
2023-03-07T01:45:05.775Z,18.40
2023-03-07T01:47:43.764Z,17.60
2023-03-07T01:50:17.690Z,19.20
2023-03-07T01:53:08.791Z,19.70
2023-03-07T01:55:37.671Z,19.70
2023-03-07T01:58:15.777Z,19.30
2023-03-07T02:00:45.403Z,18.10
2023-03-07T02:03:26.461Z,17.70
2023-03-07T02:05:58.774Z,18.60
2023-03-07T02:08:30.900Z,17.60
2023-03-07T02:10:58.993Z,17.80
2023-03-07T02:13:27.157Z,17.90
2023-03-07T02:15:56.464Z,16.00
2023-03-07T02:18:28.656Z,18.20
2023-03-07T02:21:09.601Z,18.10
2023-03-07T02:23:43.902Z,18.20
2023-03-07T02:26:30.976Z,18.30
2023-03-07T02:29:00.833Z,17.50
2023-03-07T02:31:29.513Z,17.90
2023-03-07T02:33:57.506Z,17.30
2023-03-07T02:36:30.773Z,17.90
2023-03-07T02:39:09.764Z,17.30
2023-03-07T02:41:40.472Z,18.00
2023-03-07T02:44:14.594Z,18.70
2023-03-07T02:46:42.616Z,19.60
2023-03-07T02:49:10.700Z,18.40
2023-03-07T02:51:38.724Z,17.70
2023-03-07T02:54:08.603Z,19.00
2023-03-07T02:56:36.970Z,18.20
2023-03-07T02:59:05.458Z,17.00
2023-03-07T03:01:33.527Z,17.90
2023-03-07T03:04:01.585Z,17.30
2023-03-07T03:06:29.765Z,16.90
2023-03-07T03:08:58.651Z,17.40
2023-03-07T03:11:27.632Z,17.10
2023-03-07T03:13:55.717Z,17.90
2023-03-07T03:16:23.723Z,16.60
2023-03-07T03:18:51.889Z,18.10
2023-03-07T03:21:20.637Z,18.00
2023-03-07T03:23:48.809Z,18.40
2023-03-07T03:26:17.010Z,18.00
2023-03-07T03:28:45.051Z,18.10
2023-03-07T03:31:17.063Z,17.50
2023-03-07T03:33:45.513Z,18.10
2023-03-07T03:36:16.418Z,17.70
2023-03-07T03:38:45.554Z,17.80
2023-03-07T03:41:18.471Z,18.70
2023-03-07T03:43:48.259Z,19.20
2023-03-07T03:46:17.164Z,18.60
2023-03-07T03:48:52.699Z,19.10
2023-03-07T03:51:22.807Z,18.90
2023-03-07T03:53:51.670Z,16.00
2023-03-07T03:56:21.721Z,16.80
2023-03-07T03:58:55.931Z,16.50
2023-03-07T04:01:26.656Z,19.00
2023-03-07T04:03:55.540Z,20.00
2023-03-07T04:06:29.246Z,21.60
2023-03-07T04:08:58.030Z,22.30
2023-03-07T04:11:26.709Z,22.10
2023-03-07T04:13:54.873Z,21.10
2023-03-07T04:16:23.910Z,22.10
2023-03-07T04:18:52.662Z,20.90
2023-03-07T04:21:22.378Z,22.00
2023-03-07T04:23:55.769Z,22.80
2023-03-07T04:26:26.074Z,24.10
2023-03-07T04:28:54.160Z,23.70
2023-03-07T04:31:49.018Z,23.90
2023-03-07T04:34:17.439Z,25.90
2023-03-07T04:36:45.539Z,25.10
2023-03-07T04:39:14.002Z,24.60
2023-03-07T04:41:42.468Z,24.30
2023-03-07T04:44:17.406Z,22.70
2023-03-07T04:46:45.468Z,22.70
2023-03-07T04:49:13.888Z,23.30
2023-03-07T04:51:44.044Z,22.10
2023-03-07T04:54:14.589Z,22.90
2023-03-07T04:56:42.915Z,23.70
2023-03-07T04:59:12.378Z,24.10
2023-03-07T05:01:40.896Z,24.10
2023-03-07T05:04:09.360Z,23.90
2023-03-07T05:06:39.553Z,23.60
2023-03-07T05:09:08.157Z,23.10
2023-03-07T05:11:36.205Z,22.60
2023-03-07T05:14:04.601Z,23.70
2023-03-07T05:16:33.804Z,24.00
2023-03-07T05:19:02.576Z,22.90
2023-03-07T05:21:32.313Z,22.30
2023-03-07T05:24:00.794Z,22.90
2023-03-07T05:26:29.492Z,22.60
2023-03-07T05:28:57.522Z,23.10
2023-03-07T05:31:25.703Z,21.70
2023-03-07T05:33:53.895Z,22.40
2023-03-07T05:36:21.935Z,22.30
2023-03-07T05:38:50.607Z,20.70
2023-03-07T05:41:19.986Z,19.90
2023-03-07T05:43:48.313Z,19.80
2023-03-07T05:46:16.393Z,21.60
2023-03-07T05:48:44.555Z,19.80
2023-03-07T05:51:13.096Z,18.10
2023-03-07T05:53:43.685Z,18.60
2023-03-07T05:56:12.032Z,19.50
2023-03-07T05:58:40.623Z,19.40
2023-03-07T06:01:08.992Z,20.30
2023-03-07T06:03:38.761Z,18.60
2023-03-07T06:06:07.492Z,21.90
2023-03-07T06:08:35.559Z,19.30
2023-03-07T06:11:04.107Z,19.50
2023-03-07T06:13:32.317Z,18.90
2023-03-07T06:16:00.258Z,19.40
2023-03-07T06:18:28.364Z,18.10
2023-03-07T06:21:05.406Z,17.70
2023-03-07T06:23:37.231Z,17.50
2023-03-07T06:26:10.390Z,19.80
2023-03-07T06:28:42.713Z,19.20
2023-03-07T06:31:13.941Z,18.20
2023-03-07T06:33:43.461Z,17.30
2023-03-07T06:36:14.689Z,17.30
2023-03-07T06:38:44.061Z,18.00
2023-03-07T06:41:12.276Z,17.80
2023-03-07T06:43:41.033Z,18.60
2023-03-07T06:46:09.318Z,18.90
2023-03-07T06:48:40.596Z,19.50
2023-03-07T06:51:11.386Z,18.60
2023-03-07T06:53:41.398Z,20.00
2023-03-07T06:56:10.218Z,17.00
2023-03-07T06:58:38.895Z,17.70
2023-03-07T07:01:07.284Z,17.60
2023-03-07T07:03:36.337Z,16.40
2023-03-07T07:06:04.555Z,16.50
2023-03-07T07:08:32.687Z,19.00
2023-03-07T07:11:00.757Z,17.70
2023-03-07T07:13:29.776Z,16.80
2023-03-07T07:16:03.293Z,19.00
2023-03-07T07:18:32.132Z,19.20
2023-03-07T07:21:00.232Z,20.00
2023-03-07T07:23:29.215Z,19.40
2023-03-07T07:25:57.165Z,20.30
2023-03-07T07:28:25.236Z,20.70
2023-03-07T07:30:53.514Z,20.40
2023-03-07T07:33:21.571Z,19.50
2023-03-07T07:35:50.701Z,20.20
2023-03-07T07:38:19.365Z,20.30
2023-03-07T07:40:47.349Z,20.40
2023-03-07T07:43:17.661Z,19.50
2023-03-07T07:45:56.116Z,19.40
2023-03-07T07:48:24.491Z,17.50
2023-03-07T07:50:52.831Z,17.80
2023-03-07T07:53:21.523Z,20.10
2023-03-07T07:55:49.896Z,20.50
2023-03-07T07:58:18.379Z,19.90
2023-03-07T08:00:46.907Z,20.90
2023-03-07T08:03:15.157Z,22.40
2023-03-07T08:05:48.838Z,20.90
2023-03-07T08:08:18.997Z,22.00
2023-03-07T08:10:47.979Z,22.00
2023-03-07T08:13:17.915Z,21.60
2023-03-07T08:15:46.015Z,23.40
2023-03-07T08:18:14.216Z,22.60
2023-03-07T08:20:42.283Z,24.40
2023-03-07T08:23:10.260Z,23.30
2023-03-07T08:25:38.736Z,21.70
2023-03-07T08:28:06.736Z,22.30
2023-03-07T08:30:37.062Z,21.70
2023-03-07T08:33:05.202Z,22.80
2023-03-07T08:35:33.425Z,22.60
2023-03-07T08:38:01.655Z,21.70
2023-03-07T08:40:31.359Z,23.50
2023-03-07T08:42:59.781Z,22.60
2023-03-07T08:45:28.030Z,21.60
2023-03-07T08:47:57.623Z,20.60
2023-03-07T08:50:28.508Z,20.30
2023-03-07T08:52:57.890Z,19.90
2023-03-07T08:55:26.341Z,21.60
2023-03-07T08:57:54.309Z,21.10
2023-03-07T09:00:22.381Z,20.70
2023-03-07T09:02:50.317Z,21.90
2023-03-07T09:05:18.435Z,20.50
2023-03-07T09:07:46.376Z,20.00
2023-03-07T09:10:14.358Z,18.40
2023-03-07T09:12:42.262Z,20.30
2023-03-07T09:15:10.827Z,21.40
2023-03-07T09:17:39.296Z,20.20
2023-03-07T09:20:09.244Z,21.00
2023-03-07T09:22:37.823Z,20.50
2023-03-07T09:25:06.586Z,20.60
2023-03-07T09:27:34.750Z,20.90
2023-03-07T09:30:02.845Z,19.40
2023-03-07T09:32:33.734Z,21.30
2023-03-07T09:35:02.024Z,20.20
2023-03-07T09:37:30.016Z,19.70
2023-03-07T09:39:57.963Z,19.70
2023-03-07T09:43:09.040Z,23.50
2023-03-07T09:46:09.209Z,20.20
2023-03-07T09:48:55.473Z,21.00
2023-03-07T09:51:40.279Z,21.10
2023-03-07T09:54:20.326Z,20.50
2023-03-07T09:56:58.517Z,21.50
2023-03-07T09:59:43.534Z,19.20
2023-03-07T10:02:28.826Z,18.90
2023-03-07T10:05:16.252Z,20.20
2023-03-07T10:07:44.363Z,19.80
2023-03-07T10:10:17.850Z,20.50
2023-03-07T10:12:51.883Z,20.20
2023-03-07T10:15:46.432Z,20.10
2023-03-07T10:18:14.603Z,22.60
2023-03-07T10:20:52.121Z,22.50
2023-03-07T10:23:41.575Z,21.90
2023-03-07T10:26:24.357Z,22.80
2023-03-07T10:28:52.856Z,21.60
2023-03-07T10:31:25.796Z,22.30
2023-03-07T10:33:54.770Z,23.30
2023-03-07T10:36:29.226Z,26.50
2023-03-07T10:39:19.036Z,25.20
2023-03-07T10:41:47.008Z,23.20
2023-03-07T10:44:18.621Z,23.90
2023-03-07T10:46:55.688Z,22.90
2023-03-07T10:49:37.749Z,22.00
2023-03-07T10:52:29.364Z,22.40
2023-03-07T10:55:33.887Z,22.10
2023-03-07T10:58:28.498Z,22.60
2023-03-07T11:01:03.725Z,23.40
2023-03-07T11:03:54.134Z,23.40
2023-03-07T11:06:40.593Z,25.50
2023-03-07T11:09:19.452Z,23.40
2023-03-07T11:11:58.102Z,23.30
2023-03-07T11:14:27.980Z,23.40
2023-03-07T11:16:59.387Z,22.80
2023-03-07T11:19:34.966Z,22.10
2023-03-07T11:22:16.048Z,22.30
2023-03-07T11:25:00.517Z,23.50
2023-03-07T11:27:48.046Z,21.50
2023-03-07T11:30:26.743Z,20.60
2023-03-07T11:33:22.869Z,18.70
2023-03-07T11:36:14.186Z,20.00
2023-03-07T11:39:12.303Z,19.40
2023-03-07T11:41:48.030Z,20.00
2023-03-07T11:44:41.224Z,21.10
2023-03-07T11:47:44.700Z,20.20
2023-03-07T11:50:23.414Z,19.70
2023-03-07T11:53:20.070Z,21.10
2023-03-07T11:56:12.737Z,19.80
2023-03-07T11:58:47.216Z,20.60
2023-03-07T12:01:40.365Z,20.70
2023-03-07T12:04:30.351Z,19.00
2023-03-07T12:07:16.753Z,19.50
2023-03-07T12:10:16.572Z,18.00
2023-03-07T12:13:00.614Z,18.50
2023-03-07T12:15:57.045Z,18.10
2023-03-07T12:18:53.499Z,16.30
2023-03-07T12:24:24.762Z,17.00
2023-03-07T12:27:26.236Z,17.40
2023-03-07T12:30:01.862Z,17.20
2023-03-07T12:32:34.649Z,16.90
2023-03-07T12:35:23.750Z,17.20
2023-03-07T12:37:51.778Z,16.30
2023-03-07T12:40:29.264Z,16.90
2023-03-07T12:43:09.212Z,16.60
2023-03-07T12:46:00.648Z,17.00
2023-03-07T12:48:34.658Z,15.30
2023-03-07T12:51:18.921Z,15.90
2023-03-07T12:53:55.212Z,15.10
2023-03-07T12:56:53.445Z,14.70
2023-03-07T12:59:22.325Z,14.10
2023-03-07T13:02:25.109Z,14.90
2023-03-07T13:04:53.592Z,14.00
2023-03-07T13:07:27.651Z,14.40
2023-03-07T13:09:59.292Z,13.20
2023-03-07T13:12:31.816Z,13.90
2023-03-07T13:15:06.469Z,13.70
2023-03-07T13:17:38.311Z,13.60
2023-03-07T13:20:15.292Z,15.30
2023-03-07T13:22:43.336Z,14.80
2023-03-07T13:25:20.473Z,16.00
2023-03-07T13:27:54.148Z,14.80
2023-03-07T13:30:24.614Z,15.00
2023-03-07T13:32:52.647Z,14.70
2023-03-07T13:35:32.911Z,14.40
2023-03-07T13:38:03.688Z,12.40
2023-03-07T13:40:47.368Z,14.10
2023-03-07T13:43:27.242Z,13.40
2023-03-07T13:45:59.857Z,12.50
2023-03-07T13:48:31.145Z,13.10
2023-03-07T13:50:59.044Z,13.30
2023-03-07T13:53:33.329Z,12.40
2023-03-07T13:56:15.862Z,13.70
2023-03-07T13:58:56.617Z,13.50
2023-03-07T14:01:27.498Z,12.90
2023-03-07T14:04:11.702Z,13.40
2023-03-07T14:06:50.489Z,12.50
2023-03-07T14:09:29.433Z,12.70
2023-03-07T14:12:12.681Z,10.90
2023-03-07T14:14:52.850Z,11.60
2023-03-07T14:17:42.306Z,10.90
2023-03-07T14:20:22.288Z,10.30
2023-03-07T14:23:03.528Z,11.10
2023-03-07T14:25:56.218Z,11.40
2023-03-07T14:28:28.786Z,12.20
2023-03-07T14:31:00.079Z,11.20
2023-03-07T14:33:37.460Z,11.80
2023-03-07T14:36:26.496Z,11.20
2023-03-07T14:38:57.392Z,11.80
2023-03-07T14:41:31.836Z,12.90
2023-03-07T14:44:38.689Z,12.90
2023-03-07T14:47:29.809Z,11.10
2023-03-07T14:50:26.890Z,12.40
2023-03-07T14:52:59.360Z,11.30
2023-03-07T14:55:35.508Z,11.60
2023-03-07T14:58:04.481Z,12.20
2023-03-07T15:00:34.838Z,12.90
2023-03-07T15:03:08.170Z,12.50
2023-03-07T15:05:52.038Z,13.00
2023-03-07T15:08:22.765Z,14.00
2023-03-07T15:11:03.237Z,13.60
2023-03-07T15:13:55.442Z,10.90
2023-03-07T15:16:34.498Z,12.20
2023-03-07T15:19:27.959Z,11.20
2023-03-07T15:21:59.617Z,11.50
2023-03-07T15:24:35.979Z,11.50
2023-03-07T15:27:06.628Z,11.50
2023-03-07T15:29:34.893Z,11.30
2023-03-07T15:32:07.559Z,11.20
2023-03-07T15:34:40.077Z,11.00
2023-03-07T15:37:24.195Z,10.80
2023-03-07T15:40:22.420Z,11.50
2023-03-07T15:42:53.912Z,10.80
2023-03-07T15:45:33.916Z,11.10
2023-03-07T15:48:18.788Z,10.00
2023-03-07T15:50:59.072Z,10.50
2023-03-07T15:53:30.665Z,11.10
2023-03-07T15:56:02.067Z,10.70
2023-03-07T15:58:31.120Z,10.80
2023-03-07T16:01:20.459Z,11.20
2023-03-07T16:04:01.562Z,9.90
2023-03-07T16:06:38.415Z,9.60
2023-03-07T16:11:37.680Z,8.90
2023-03-07T16:14:14.086Z,10.20
2023-03-07T16:16:44.362Z,11.30
2023-03-07T16:19:12.592Z,11.00
2023-03-07T16:21:41.212Z,12.10
2023-03-07T16:24:09.566Z,12.60
2023-03-07T16:26:39.343Z,13.80
2023-03-07T16:29:08.988Z,13.90
2023-03-07T16:31:36.992Z,15.40
2023-03-07T16:34:06.687Z,14.10
2023-03-07T16:36:34.676Z,14.00
2023-03-07T16:39:02.634Z,15.00
2023-03-07T16:41:30.654Z,13.70
2023-03-07T16:43:59.747Z,13.00
2023-03-07T16:46:29.055Z,13.70
2023-03-07T16:48:57.061Z,13.20
2023-03-07T16:51:26.254Z,14.00
2023-03-07T16:58:31.109Z,14.00
2023-03-07T17:00:59.997Z,14.50
2023-03-07T17:03:29.907Z,14.70
2023-03-07T17:05:57.889Z,15.20
2023-03-07T17:08:25.832Z,14.90
2023-03-07T17:10:53.803Z,14.20
2023-03-07T17:13:21.751Z,15.10
2023-03-07T17:15:50.122Z,14.30
2023-03-07T17:18:18.020Z,12.80
2023-03-07T17:20:45.906Z,11.90
2023-03-07T17:23:13.800Z,11.90
2023-03-07T17:25:41.713Z,12.30
2023-03-07T17:28:14.334Z,13.70
2023-03-07T17:30:45.146Z,13.60
2023-03-07T17:33:14.999Z,14.00
2023-03-07T17:35:42.974Z,13.90
2023-03-07T17:38:10.841Z,13.60
2023-03-07T17:40:38.824Z,14.10
2023-03-07T17:43:06.831Z,13.40
2023-03-07T17:45:34.842Z,13.30
2023-03-07T17:48:02.858Z,12.00
2023-03-07T17:50:30.945Z,12.20
2023-03-07T17:52:59.045Z,12.50
2023-03-07T17:55:27.464Z,12.70
2023-03-07T17:57:55.628Z,12.50
2023-03-07T18:00:24.283Z,13.10
2023-03-07T18:02:54.273Z,13.10
2023-03-07T18:05:26.076Z,12.70
2023-03-07T18:07:54.528Z,13.90
2023-03-07T18:10:23.097Z,14.60
2023-03-07T18:12:53.676Z,14.80
2023-03-07T18:15:22.432Z,15.50
2023-03-07T18:17:50.529Z,15.00
2023-03-07T18:20:19.831Z,14.40
2023-03-07T18:22:48.191Z,14.90
2023-03-07T18:25:17.737Z,13.20
2023-03-07T18:27:46.076Z,12.50
2023-03-07T18:30:14.798Z,13.20
2023-03-07T18:32:42.842Z,13.00
2023-03-07T18:35:12.128Z,13.00
2023-03-07T18:37:40.016Z,12.50
2023-03-07T18:40:08.765Z,12.10
2023-03-07T18:42:36.814Z,12.00
2023-03-07T18:45:05.887Z,11.50
2023-03-07T18:47:33.783Z,10.30
2023-03-07T18:50:01.702Z,10.50
2023-03-07T18:52:29.618Z,11.20
2023-03-07T18:54:57.478Z,11.30
2023-03-07T18:57:25.385Z,10.10
2023-03-07T18:59:53.707Z,9.90
2023-03-07T19:02:21.637Z,10.10
2023-03-07T19:04:49.740Z,10.00
2023-03-07T19:07:17.654Z,9.90
2023-03-07T19:09:48.452Z,11.00
2023-03-07T19:12:16.736Z,9.90
2023-03-07T19:14:44.681Z,10.50
2023-03-07T19:17:12.609Z,9.90
2023-03-07T19:19:40.569Z,9.50
2023-03-07T19:22:08.858Z,9.80
2023-03-07T19:24:36.759Z,9.20
2023-03-07T19:27:04.665Z,9.10
2023-03-07T19:29:32.957Z,9.60
2023-03-07T19:32:00.889Z,10.10
2023-03-07T19:34:28.802Z,10.20
2023-03-07T19:36:56.912Z,9.90
2023-03-07T19:39:24.797Z,9.40
2023-03-07T19:41:53.358Z,11.00
2023-03-07T19:44:21.948Z,10.00
2023-03-07T19:46:49.865Z,9.70
2023-03-07T19:49:18.178Z,10.40
2023-03-07T19:51:46.071Z,9.10
2023-03-07T19:54:15.168Z,8.90
2023-03-07T19:56:45.113Z,10.00
2023-03-07T19:59:14.049Z,10.20
2023-03-07T20:01:42.070Z,8.70
2023-03-07T20:04:14.550Z,8.70
2023-03-07T20:11:16.665Z,9.10
2023-03-07T20:13:46.729Z,9.80
2023-03-07T20:16:17.420Z,9.60
2023-03-07T20:18:52.837Z,10.30
2023-03-07T20:21:27.861Z,10.30
2023-03-07T20:23:59.732Z,9.30
2023-03-07T20:26:34.405Z,9.40
2023-03-07T20:29:05.511Z,10.00
2023-03-07T20:31:34.698Z,10.00
2023-03-07T20:34:03.547Z,10.00
2023-03-07T20:36:36.788Z,10.10
2023-03-07T20:39:08.554Z,9.80
2023-03-07T20:41:36.541Z,10.10
2023-03-07T20:44:07.032Z,10.30
2023-03-07T20:46:36.039Z,10.30
2023-03-07T20:49:04.858Z,9.50
2023-03-07T20:51:36.163Z,9.00
2023-03-07T20:54:08.598Z,7.90
2023-03-07T20:56:39.278Z,8.50
2023-03-07T20:59:09.303Z,9.50
2023-03-07T21:01:37.351Z,9.20
2023-03-07T21:04:12.287Z,10.50
2023-03-07T21:06:42.729Z,10.10
2023-03-07T21:09:12.479Z,10.00
2023-03-07T21:11:47.215Z,9.60
2023-03-07T21:14:17.357Z,9.00
2023-03-07T21:16:45.413Z,9.00
2023-03-07T21:19:16.227Z,8.40
2023-03-07T21:26:22.209Z,7.90
2023-03-07T21:33:17.364Z,9.40
2023-03-07T21:35:45.467Z,9.70
2023-03-07T21:38:14.546Z,9.20
2023-03-07T21:40:43.346Z,9.80
2023-03-07T21:43:12.263Z,9.80
2023-03-07T21:45:41.491Z,9.00
2023-03-07T21:48:11.244Z,9.20
2023-03-07T21:50:43.324Z,8.80
2023-03-07T21:53:13.267Z,8.80
2023-03-07T21:55:50.262Z,10.00
2023-03-07T21:58:19.809Z,9.60
2023-03-07T22:00:49.308Z,9.90
2023-03-07T22:03:18.459Z,9.60
2023-03-07T22:05:46.553Z,9.10
2023-03-07T22:08:21.259Z,9.90
2023-03-07T22:11:01.289Z,8.30
2023-03-07T22:13:35.307Z,8.10
2023-03-07T22:20:36.287Z,7.00
2023-03-07T22:23:07.729Z,6.70
2023-03-07T22:25:38.281Z,7.50
2023-03-07T22:28:09.276Z,6.30
2023-03-07T22:30:40.299Z,6.60
2023-03-07T22:33:11.106Z,6.30
2023-03-07T22:35:42.745Z,5.30
2023-03-07T22:38:16.691Z,6.50
2023-03-07T22:40:48.311Z,5.90
2023-03-07T22:43:20.359Z,6.10
2023-03-07T22:45:53.350Z,6.40
2023-03-07T22:48:24.339Z,6.70
2023-03-07T22:50:55.341Z,5.60
2023-03-07T22:53:29.324Z,4.90
2023-03-07T22:56:00.754Z,4.00
2023-03-07T22:58:31.335Z,3.60
2023-03-07T23:01:02.351Z,2.60
2023-03-07T23:03:34.370Z,3.10
2023-03-07T23:13:41.293Z,3.00
2023-03-07T23:16:12.590Z,6.20
2023-03-07T23:18:42.245Z,2.50
2023-03-07T23:21:12.829Z,2.60
2023-03-07T23:23:41.219Z,2.60
2023-03-07T23:26:09.191Z,2.50
2023-03-07T23:28:37.201Z,3.10
2023-03-07T23:31:05.340Z,3.30
2023-03-07T23:33:34.017Z,3.80
2023-03-07T23:36:02.080Z,3.20
2023-03-07T23:38:30.154Z,3.60
2023-03-07T23:40:58.532Z,3.50
2023-03-07T23:43:26.643Z,2.90
2023-03-07T23:45:54.690Z,2.80
2023-03-07T23:48:22.750Z,2.80
2023-03-07T23:50:50.945Z,3.40
2023-03-07T23:53:18.888Z,2.80
2023-03-07T23:55:46.963Z,2.90
2023-03-07T23:58:15.137Z,3.40
